MUC weather

Munich Airport
Munich, Bavaria, Germany

Public forecast

Using degrees Celsius for public forecast. Weather courtesy of forecast.io.

METAR (pilot weather report)

Retrieved 2017/09/25 07:20 UTC (0 seconds ago):

EDDM 250720Z 00000KT 4500 1300NE R08L/0500N R08R/P2000N PRFG FEW001 07/06 Q1021 BECMG 6000

TAF (pilot weather forecast)

Forecast is more than 12 hours old.

Retrieved 2017/09/24 00:27 UTC (1 day ago):

TAF EDDM 242300Z 2500/2606 VRB03KT CAVOK BECMG 2502/2504 2500 BCFG TEMPO 2503/2507 0400 FG VV001 BECMG 2507/2509 09005KT 9999 BECMG 2515/2517 VRB03KT BECMG 2600/2603 2000 BCFG TEMPO 2603/2606 0400 FG VV001